createdAt,value
2023-05-15T00:01:26.001Z,4.13
2023-05-15T00:03:55.145Z,3.72
2023-05-15T00:06:23.549Z,3.40
2023-05-15T00:08:51.937Z,2.78
2023-05-15T00:11:20.268Z,4.07
2023-05-15T00:13:49.761Z,3.38
2023-05-15T00:16:18.056Z,3.95
2023-05-15T00:18:46.299Z,3.13
2023-05-15T00:21:14.401Z,2.85
2023-05-15T00:23:42.501Z,2.83
2023-05-15T00:26:10.909Z,3.88
2023-05-15T00:28:39.282Z,3.42
2023-05-15T00:31:09.705Z,3.08
2023-05-15T00:33:37.762Z,3.72
2023-05-15T00:36:06.516Z,3.40
2023-05-15T00:38:34.593Z,3.35
2023-05-15T00:41:03.533Z,3.33
2023-05-15T00:43:32.123Z,3.05
2023-05-15T00:46:01.976Z,3.97
2023-05-15T00:48:32.681Z,3.67
2023-05-15T00:51:01.505Z,3.63
2023-05-15T00:53:29.631Z,3.55
2023-05-15T00:55:59.807Z,3.72
2023-05-15T00:58:29.418Z,3.58
2023-05-15T01:00:57.540Z,3.67
2023-05-15T01:03:26.042Z,4.13
2023-05-15T01:05:55.620Z,3.17
2023-05-15T01:08:28.597Z,2.80
2023-05-15T01:10:58.082Z,3.05
2023-05-15T01:13:26.123Z,3.30
2023-05-15T01:15:56.974Z,4.50
2023-05-15T01:18:26.126Z,3.53
2023-05-15T01:21:14.927Z,3.15
2023-05-15T01:23:59.242Z,3.55
2023-05-15T01:27:00.457Z,2.83
2023-05-15T01:29:34.767Z,3.13
2023-05-15T01:32:05.318Z,2.85
2023-05-15T01:34:39.668Z,3.25
2023-05-15T01:37:09.954Z,3.35
2023-05-15T01:39:43.295Z,3.92
2023-05-15T01:42:14.482Z,4.57
2023-05-15T01:44:47.361Z,3.00
2023-05-15T01:47:19.070Z,3.20
2023-05-15T01:49:50.339Z,3.70
2023-05-15T01:52:25.405Z,3.40
2023-05-15T01:54:55.682Z,3.50
2023-05-15T01:57:26.831Z,2.60
2023-05-15T01:59:56.627Z,3.17
2023-05-15T02:02:25.087Z,3.83
2023-05-15T02:04:53.930Z,3.00
2023-05-15T02:07:22.719Z,3.13
2023-05-15T02:09:52.769Z,3.60
2023-05-15T02:12:22.060Z,2.53
2023-05-15T02:14:51.465Z,3.20
2023-05-15T02:17:21.121Z,3.50
2023-05-15T02:19:49.310Z,3.58
2023-05-15T02:22:20.351Z,3.63
2023-05-15T02:24:48.412Z,3.58
2023-05-15T02:27:23.854Z,3.10
2023-05-15T02:30:20.193Z,3.65
2023-05-15T02:32:59.816Z,3.10
2023-05-15T02:35:33.436Z,3.03
2023-05-15T02:38:07.739Z,3.13
2023-05-15T02:40:38.533Z,4.18
2023-05-15T02:43:07.118Z,3.33
2023-05-15T02:45:36.396Z,3.67
2023-05-15T02:48:06.601Z,3.97
2023-05-15T02:50:35.065Z,3.42
2023-05-15T02:53:04.230Z,3.25
2023-05-15T02:55:32.352Z,3.67
2023-05-15T02:58:00.577Z,3.28
2023-05-15T03:00:29.130Z,3.45
2023-05-15T03:02:57.285Z,3.67
2023-05-15T03:05:27.347Z,3.28
2023-05-15T03:07:55.877Z,4.50
2023-05-15T03:10:24.311Z,3.30
2023-05-15T03:12:52.381Z,3.58
2023-05-15T03:15:20.547Z,3.53
2023-05-15T03:17:48.571Z,2.78
2023-05-15T03:20:16.653Z,4.22
2023-05-15T03:22:46.085Z,2.95
2023-05-15T03:25:14.270Z,3.28
2023-05-15T03:27:42.314Z,3.85
2023-05-15T03:30:11.333Z,4.20
2023-05-15T03:32:39.505Z,3.30
2023-05-15T03:35:08.104Z,3.30
2023-05-15T03:37:36.074Z,3.28
2023-05-15T03:40:07.448Z,3.08
2023-05-15T03:42:35.766Z,3.13
2023-05-15T03:45:04.118Z,2.78
2023-05-15T03:47:32.301Z,4.00
2023-05-15T03:50:00.504Z,3.83
2023-05-15T03:52:28.669Z,3.53
2023-05-15T03:54:56.807Z,3.20
2023-05-15T03:57:26.406Z,3.22
2023-05-15T03:59:54.415Z,3.38
2023-05-15T04:02:22.534Z,3.45
2023-05-15T04:04:51.620Z,3.42
2023-05-15T04:07:20.174Z,3.17
2023-05-15T04:09:48.193Z,3.65
2023-05-15T04:12:16.270Z,2.97
2023-05-15T04:14:45.646Z,3.05
2023-05-15T04:17:13.763Z,5.15
2023-05-15T04:19:43.080Z,2.88
2023-05-15T04:22:11.233Z,3.00
2023-05-15T04:24:39.299Z,2.72
2023-05-15T04:27:07.975Z,3.38
2023-05-15T04:29:36.103Z,4.25
2023-05-15T04:32:05.954Z,3.17
2023-05-15T04:34:34.048Z,4.03
2023-05-15T04:37:02.142Z,3.53
2023-05-15T04:39:30.155Z,3.53
2023-05-15T04:41:58.187Z,3.92
2023-05-15T04:44:26.575Z,3.97
2023-05-15T04:46:54.643Z,3.15
2023-05-15T04:49:24.068Z,3.58
2023-05-15T04:51:52.073Z,2.92
2023-05-15T04:54:20.974Z,3.55
2023-05-15T04:56:49.145Z,3.95
2023-05-15T04:59:18.213Z,3.60
2023-05-15T05:01:46.590Z,3.67
2023-05-15T05:04:15.211Z,3.92
2023-05-15T05:06:44.656Z,3.88
2023-05-15T05:09:12.701Z,3.60
2023-05-15T05:11:43.578Z,4.18
2023-05-15T05:14:11.654Z,4.38
2023-05-15T05:16:39.970Z,3.50
2023-05-15T05:19:08.684Z,3.67
2023-05-15T05:21:36.851Z,4.60
2023-05-15T05:24:06.714Z,4.15
2023-05-15T05:26:35.059Z,4.28
2023-05-15T05:29:03.254Z,3.63
2023-05-15T05:31:31.371Z,3.80
2023-05-15T05:33:59.484Z,3.50
2023-05-15T05:36:27.526Z,4.03
2023-05-15T05:38:55.544Z,3.70
2023-05-15T05:41:25.032Z,4.00
2023-05-15T05:43:53.116Z,3.97
2023-05-15T05:46:21.318Z,5.40
2023-05-15T05:48:49.383Z,4.55
2023-05-15T05:51:17.429Z,5.15
2023-05-15T05:53:45.720Z,4.97
2023-05-15T05:56:17.046Z,4.43
2023-05-15T05:58:46.722Z,3.92
2023-05-15T06:01:14.899Z,4.88
2023-05-15T06:03:44.743Z,4.20
2023-05-15T06:06:13.052Z,3.95
2023-05-15T06:08:41.506Z,5.90
2023-05-15T06:11:09.549Z,5.07
2023-05-15T06:13:37.722Z,4.25
2023-05-15T06:16:07.742Z,3.75
2023-05-15T06:18:35.899Z,4.85
2023-05-15T06:21:04.102Z,5.43
2023-05-15T06:23:32.154Z,3.92
2023-05-15T06:26:01.635Z,4.43
2023-05-15T06:28:29.667Z,3.90
2023-05-15T06:30:57.831Z,5.85
2023-05-15T06:33:27.373Z,4.30
2023-05-15T06:35:55.504Z,4.32
2023-05-15T06:38:23.741Z,4.13
2023-05-15T06:40:51.866Z,7.72
2023-05-15T06:43:20.065Z,6.90
2023-05-15T06:45:48.198Z,4.30
2023-05-15T06:48:16.356Z,5.38
2023-05-15T06:50:45.852Z,6.47
2023-05-15T06:53:14.643Z,6.05
2023-05-15T06:55:42.899Z,6.88
2023-05-15T06:58:11.154Z,6.72
2023-05-15T07:00:39.365Z,5.22
2023-05-15T07:03:07.444Z,5.07
2023-05-15T07:05:35.517Z,7.57
2023-05-15T07:08:05.021Z,4.78
2023-05-15T07:10:33.078Z,6.13
2023-05-15T07:13:01.168Z,4.65
2023-05-15T07:15:29.353Z,3.95
2023-05-15T07:17:57.627Z,6.97
2023-05-15T07:20:29.085Z,4.90
2023-05-15T07:25:28.734Z,4.65
2023-05-15T07:27:57.024Z,5.28
2023-05-15T07:30:26.686Z,5.15
2023-05-15T07:32:55.111Z,5.57
2023-05-15T07:35:23.503Z,3.80
2023-05-15T07:37:51.752Z,6.90
2023-05-15T07:40:19.850Z,4.50
2023-05-15T07:42:49.286Z,5.07
2023-05-15T07:45:20.320Z,4.00
2023-05-15T07:47:49.488Z,5.25
2023-05-15T07:50:18.064Z,4.65
2023-05-15T07:52:46.442Z,5.80
2023-05-15T07:55:14.595Z,4.60
2023-05-15T07:57:42.665Z,4.80
2023-05-15T08:00:13.632Z,4.55
2023-05-15T08:02:42.762Z,4.85
2023-05-15T08:05:10.988Z,5.45
2023-05-15T08:07:39.097Z,5.00
2023-05-15T08:10:08.455Z,4.40
2023-05-15T08:12:36.456Z,7.47
2023-05-15T08:15:05.280Z,6.70
2023-05-15T08:17:34.767Z,4.38
2023-05-15T08:20:02.822Z,6.78
2023-05-15T08:22:31.088Z,6.57
2023-05-15T08:25:00.336Z,4.35
2023-05-15T08:27:28.498Z,7.20
2023-05-15T08:29:56.595Z,5.57
2023-05-15T08:32:24.763Z,5.85
2023-05-15T08:34:58.064Z,6.60
2023-05-15T08:37:26.142Z,7.15
2023-05-15T08:39:54.176Z,5.72
2023-05-15T08:42:27.904Z,6.45
2023-05-15T08:44:56.926Z,5.38
2023-05-15T08:47:27.302Z,4.80
2023-05-15T08:50:04.905Z,6.35
2023-05-15T08:52:34.322Z,4.55
2023-05-15T08:55:06.185Z,6.85
2023-05-15T08:57:34.839Z,6.20
2023-05-15T09:00:04.776Z,4.72
2023-05-15T09:02:33.876Z,4.57
2023-05-15T09:05:03.755Z,6.18
2023-05-15T09:07:32.363Z,6.13
2023-05-15T09:10:02.270Z,5.47
2023-05-15T09:12:34.041Z,5.30
2023-05-15T09:15:13.121Z,5.22
2023-05-15T09:17:43.313Z,5.75
2023-05-15T09:20:29.628Z,5.90
2023-05-15T09:22:58.109Z,4.80
2023-05-15T09:25:37.623Z,4.38
2023-05-15T09:28:06.829Z,4.95
2023-05-15T09:30:34.965Z,7.07
2023-05-15T09:33:04.801Z,5.97
2023-05-15T09:35:35.893Z,5.22
2023-05-15T09:38:05.617Z,5.60
2023-05-15T09:40:33.728Z,8.40
2023-05-15T09:43:01.749Z,7.00
2023-05-15T09:45:31.570Z,5.97
2023-05-15T09:48:02.469Z,6.13
2023-05-15T09:50:36.617Z,6.88
2023-05-15T09:53:05.113Z,5.80
2023-05-15T09:55:34.204Z,5.95
2023-05-15T09:58:07.364Z,5.05
2023-05-15T10:00:35.612Z,4.15
2023-05-15T10:03:04.649Z,4.78
2023-05-15T10:05:43.212Z,5.13
2023-05-15T10:08:17.066Z,5.43
2023-05-15T10:10:47.100Z,5.05
2023-05-15T10:13:18.259Z,4.10
2023-05-15T10:15:49.826Z,4.30
2023-05-15T10:18:19.976Z,4.88
2023-05-15T10:20:50.652Z,4.05
2023-05-15T10:23:22.540Z,5.47
2023-05-15T10:26:02.966Z,4.82
2023-05-15T10:28:32.494Z,3.97
2023-05-15T10:31:02.772Z,4.47
2023-05-15T10:33:31.150Z,4.13
2023-05-15T10:36:01.148Z,3.78
2023-05-15T10:38:31.630Z,3.58
2023-05-15T10:41:16.121Z,3.60
2023-05-15T10:43:45.821Z,6.43
2023-05-15T10:46:14.926Z,5.25
2023-05-15T10:48:43.621Z,4.57
2023-05-15T10:51:18.400Z,4.00
2023-05-15T10:53:47.306Z,3.53
2023-05-15T10:56:17.197Z,4.30
2023-05-15T10:58:48.060Z,3.65
2023-05-15T11:01:27.352Z,4.97
2023-05-15T11:04:07.622Z,3.25
2023-05-15T11:06:38.059Z,3.85
2023-05-15T11:09:34.908Z,3.90
2023-05-15T11:12:04.374Z,3.83
2023-05-15T11:14:33.390Z,3.95
2023-05-15T11:17:04.087Z,4.60
2023-05-15T11:19:42.124Z,4.60
2023-05-15T11:22:21.861Z,3.00
2023-05-15T11:24:53.964Z,4.18
2023-05-15T11:27:23.893Z,4.18
2023-05-15T11:30:08.873Z,3.35
2023-05-15T11:32:50.641Z,4.45
2023-05-15T11:35:27.731Z,4.32
2023-05-15T11:37:58.516Z,3.17
2023-05-15T11:40:28.283Z,3.65
2023-05-15T11:43:17.839Z,3.97
2023-05-15T11:45:48.609Z,3.97
2023-05-15T11:48:18.101Z,4.43
2023-05-15T11:50:46.928Z,4.00
2023-05-15T11:53:17.482Z,3.42
2023-05-15T11:55:46.246Z,3.33
2023-05-15T11:58:16.102Z,3.72
2023-05-15T12:00:44.997Z,4.13
2023-05-15T12:03:17.053Z,3.70
2023-05-15T12:05:57.375Z,5.63
2023-05-15T12:08:33.284Z,4.15
2023-05-15T12:11:02.869Z,4.43
2023-05-15T12:13:31.915Z,3.33
2023-05-15T12:16:00.398Z,3.17
2023-05-15T12:18:28.574Z,3.53
2023-05-15T12:20:57.853Z,3.28
2023-05-15T12:23:28.802Z,3.88
2023-05-15T12:26:00.932Z,3.25
2023-05-15T12:28:30.322Z,3.50
2023-05-15T12:30:59.526Z,3.80
2023-05-15T12:33:27.844Z,2.85
2023-05-15T12:36:01.182Z,3.53
2023-05-15T12:38:34.193Z,4.65
2023-05-15T12:41:02.334Z,4.32
2023-05-15T12:43:32.510Z,2.90
2023-05-15T12:46:00.722Z,2.70
2023-05-15T12:48:32.847Z,4.15
2023-05-15T12:51:07.300Z,3.20
2023-05-15T12:53:39.702Z,2.72
2023-05-15T12:56:09.018Z,3.42
2023-05-15T12:58:38.293Z,3.33
2023-05-15T13:01:06.640Z,3.42
2023-05-15T13:03:35.456Z,3.78
2023-05-15T13:06:04.266Z,2.75
2023-05-15T13:08:32.445Z,3.50
2023-05-15T13:11:02.001Z,3.28
2023-05-15T13:13:46.608Z,2.80
2023-05-15T13:16:22.334Z,4.25
2023-05-15T13:18:50.669Z,3.10
2023-05-15T13:21:18.965Z,3.45
2023-05-15T13:23:47.080Z,3.28
2023-05-15T13:26:16.738Z,3.00
2023-05-15T13:28:44.871Z,3.85
2023-05-15T13:31:13.036Z,3.00
2023-05-15T13:33:41.773Z,3.83
2023-05-15T13:36:10.110Z,4.22
2023-05-15T13:38:38.425Z,3.00
2023-05-15T13:41:06.681Z,3.53
2023-05-15T13:43:36.197Z,2.63
2023-05-15T13:46:04.662Z,3.05
2023-05-15T13:48:33.201Z,3.33
2023-05-15T13:51:01.334Z,2.35
2023-05-15T13:53:29.391Z,2.78
2023-05-15T13:55:57.460Z,3.20
2023-05-15T13:58:26.698Z,3.35
2023-05-15T14:00:56.380Z,3.15
2023-05-15T14:03:24.611Z,2.88
2023-05-15T14:05:52.878Z,3.20
2023-05-15T14:08:21.132Z,2.58
2023-05-15T14:10:49.327Z,4.45
2023-05-15T14:13:17.398Z,2.78
2023-05-15T14:15:45.534Z,3.53
2023-05-15T14:18:15.032Z,3.30
2023-05-15T14:20:43.173Z,2.40
2023-05-15T14:23:11.251Z,3.38
2023-05-15T14:25:39.332Z,3.08
2023-05-15T14:28:07.476Z,3.03
2023-05-15T14:30:35.620Z,2.42
2023-05-15T14:33:03.737Z,4.65
2023-05-15T14:35:33.238Z,2.97
2023-05-15T14:38:01.382Z,3.08
2023-05-15T14:40:29.475Z,3.30
2023-05-15T14:42:57.511Z,3.22
2023-05-15T14:45:25.785Z,2.85
2023-05-15T14:47:54.150Z,2.83
2023-05-15T14:50:22.236Z,3.08
2023-05-15T14:52:51.719Z,2.63
2023-05-15T14:55:21.943Z,2.70
2023-05-15T14:57:50.710Z,2.60
2023-05-15T15:00:19.421Z,3.55
2023-05-15T15:02:47.510Z,2.70
2023-05-15T15:05:15.706Z,2.78
2023-05-15T15:08:02.486Z,3.50
2023-05-15T15:10:31.499Z,2.90
2023-05-15T15:13:00.064Z,3.45
2023-05-15T15:15:28.631Z,2.95
2023-05-15T15:17:57.269Z,3.35
2023-05-15T15:20:26.516Z,2.58
2023-05-15T15:22:55.611Z,2.78
2023-05-15T15:25:25.300Z,3.60
2023-05-15T15:27:53.607Z,2.55
2023-05-15T15:30:21.742Z,2.50
2023-05-15T15:32:49.994Z,2.53
2023-05-15T15:35:18.077Z,2.88
2023-05-15T15:37:46.084Z,3.22
2023-05-15T15:40:14.220Z,2.90
2023-05-15T15:42:43.868Z,4.80
2023-05-15T15:45:12.066Z,3.17
2023-05-15T15:47:40.202Z,2.53
2023-05-15T15:50:09.087Z,2.80
2023-05-15T15:52:37.265Z,3.72
2023-05-15T15:55:06.038Z,3.10
2023-05-15T15:57:34.317Z,3.35
2023-05-15T16:00:04.181Z,3.22
2023-05-15T16:02:34.375Z,3.60
2023-05-15T16:05:02.482Z,2.95
2023-05-15T16:07:30.709Z,2.95
2023-05-15T16:10:11.379Z,2.63
2023-05-15T16:12:40.959Z,2.15
2023-05-15T16:17:42.795Z,1.85
2023-05-15T16:20:11.320Z,2.80
2023-05-15T16:22:41.685Z,2.55
2023-05-15T16:25:10.215Z,2.60
2023-05-15T16:27:38.318Z,2.45
2023-05-15T16:30:07.477Z,2.53
2023-05-15T16:32:37.041Z,2.75
2023-05-15T16:35:08.938Z,3.03
2023-05-15T16:37:37.416Z,2.95
2023-05-15T16:40:06.486Z,3.30
2023-05-15T16:42:37.982Z,2.63
2023-05-15T16:45:07.648Z,2.60
2023-05-15T16:47:38.405Z,2.53
2023-05-15T16:50:07.761Z,2.42
2023-05-15T16:52:36.167Z,2.88
2023-05-15T16:55:04.499Z,2.30
2023-05-15T16:57:32.586Z,2.83
2023-05-15T17:00:00.735Z,1.80
2023-05-15T17:02:28.960Z,3.53
2023-05-15T17:04:58.536Z,2.78
2023-05-15T17:07:26.696Z,2.67
2023-05-15T17:09:55.886Z,2.00
2023-05-15T17:12:24.777Z,3.40
2023-05-15T17:14:52.967Z,3.17
2023-05-15T17:17:21.067Z,3.05
2023-05-15T17:19:49.204Z,2.90
2023-05-15T17:22:18.611Z,2.80
2023-05-15T17:24:51.215Z,3.00
2023-05-15T17:27:20.913Z,2.55
2023-05-15T17:29:52.353Z,2.88
2023-05-15T17:32:20.850Z,6.85
2023-05-15T17:34:50.149Z,3.42
2023-05-15T17:37:19.658Z,4.80
2023-05-15T17:39:47.757Z,2.97
2023-05-15T17:42:15.827Z,2.70
2023-05-15T17:44:46.275Z,5.15
2023-05-15T17:47:14.553Z,5.35
2023-05-15T17:49:42.739Z,4.18
2023-05-15T17:52:11.116Z,4.05
2023-05-15T17:54:40.715Z,7.32
2023-05-15T17:57:09.134Z,6.78
2023-05-15T17:59:37.253Z,4.95
2023-05-15T18:02:06.218Z,7.40
2023-05-15T18:04:34.418Z,6.25
2023-05-15T18:07:02.701Z,4.57
2023-05-15T18:09:31.009Z,5.25
2023-05-15T18:12:00.821Z,5.95
2023-05-15T18:14:29.219Z,4.40
2023-05-15T18:16:57.844Z,6.32
2023-05-15T18:19:26.022Z,5.32
2023-05-15T18:21:54.241Z,9.25
2023-05-15T18:24:22.838Z,4.15
2023-05-15T18:26:51.498Z,4.57
2023-05-15T18:29:21.939Z,4.78
2023-05-15T18:31:53.514Z,4.53
2023-05-15T18:34:22.163Z,7.78
2023-05-15T18:36:52.058Z,6.28
2023-05-15T18:39:20.618Z,6.13
2023-05-15T18:41:49.049Z,4.00
2023-05-15T18:44:17.504Z,11.32
2023-05-15T18:46:47.438Z,3.70
2023-05-15T18:49:18.054Z,10.52
2023-05-15T18:51:46.593Z,5.90
2023-05-15T18:54:15.163Z,5.57
2023-05-15T18:56:43.630Z,6.20
2023-05-15T18:59:12.526Z,7.80
2023-05-15T19:01:41.160Z,6.18
2023-05-15T19:04:11.142Z,7.43
2023-05-15T19:06:39.838Z,5.55
2023-05-15T19:09:09.519Z,6.75
2023-05-15T19:11:37.901Z,7.70
2023-05-15T19:14:06.554Z,7.80
2023-05-15T19:16:35.073Z,9.82
2023-05-15T19:19:03.744Z,5.93
2023-05-15T19:21:33.563Z,7.07
2023-05-15T19:24:01.980Z,5.70
2023-05-15T19:26:30.523Z,6.88
2023-05-15T19:28:58.969Z,9.05
2023-05-15T19:31:32.212Z,7.13
2023-05-15T19:34:01.012Z,7.97
2023-05-15T19:36:29.825Z,7.25
2023-05-15T19:38:59.636Z,5.20
2023-05-15T19:41:28.016Z,6.50
2023-05-15T19:43:56.446Z,7.30
2023-05-15T19:46:24.971Z,4.43
2023-05-15T19:48:53.391Z,6.38
2023-05-15T19:51:21.940Z,5.78
2023-05-15T19:53:50.455Z,5.70
2023-05-15T19:56:21.531Z,7.05
2023-05-15T19:58:50.075Z,5.72
2023-05-15T20:01:18.633Z,7.68
2023-05-15T20:03:47.074Z,6.28
2023-05-15T20:06:15.612Z,6.68
2023-05-15T20:08:44.059Z,10.07
2023-05-15T20:11:12.263Z,6.80
2023-05-15T20:13:41.817Z,7.90
2023-05-15T20:16:13.928Z,7.60
2023-05-15T20:18:44.773Z,7.47
2023-05-15T20:21:12.951Z,6.32
2023-05-15T20:23:52.557Z,5.28
2023-05-15T20:26:22.392Z,7.82
2023-05-15T20:28:52.199Z,7.65
2023-05-15T20:31:20.389Z,6.68
2023-05-15T20:33:48.488Z,7.70
2023-05-15T20:36:16.836Z,6.90
2023-05-15T20:38:45.509Z,8.15
2023-05-15T20:41:14.899Z,8.50
2023-05-15T20:43:43.010Z,8.80
2023-05-15T20:46:12.654Z,8.60
2023-05-15T20:48:40.844Z,7.13
2023-05-15T20:51:08.950Z,10.40
2023-05-15T20:53:37.037Z,8.23
2023-05-15T20:56:05.179Z,6.72
2023-05-15T20:58:33.352Z,6.93
2023-05-15T21:01:01.615Z,8.25
2023-05-15T21:03:31.401Z,7.05
2023-05-15T21:05:59.654Z,4.75
2023-05-15T21:08:28.570Z,9.52
2023-05-15T21:10:56.808Z,7.72
2023-05-15T21:13:25.032Z,6.35
2023-05-15T21:15:53.263Z,5.15
2023-05-15T21:18:21.335Z,5.93
2023-05-15T21:20:50.874Z,6.38
2023-05-15T21:23:21.013Z,7.93
2023-05-15T21:25:49.328Z,6.32
2023-05-15T21:28:17.509Z,5.90
2023-05-15T21:30:45.737Z,6.90
2023-05-15T21:33:13.797Z,7.07
2023-05-15T21:35:41.878Z,5.95
2023-05-15T21:38:11.348Z,5.70
2023-05-15T21:40:40.987Z,5.75
2023-05-15T21:43:09.091Z,5.40
2023-05-15T21:45:37.140Z,4.30
2023-05-15T21:48:05.559Z,6.25
2023-05-15T21:50:33.790Z,4.85
2023-05-15T21:53:02.072Z,4.88
2023-05-15T21:55:31.458Z,5.68
2023-05-15T21:57:59.495Z,5.15
2023-05-15T22:00:28.241Z,6.25
2023-05-15T22:02:56.554Z,5.32
2023-05-15T22:05:24.771Z,6.15
2023-05-15T22:07:52.945Z,5.13
2023-05-15T22:10:21.028Z,3.97
2023-05-15T22:12:50.575Z,5.32
2023-05-15T22:15:18.786Z,4.32
2023-05-15T22:17:46.920Z,6.05
2023-05-15T22:20:17.439Z,6.20
2023-05-15T22:22:45.710Z,6.20
2023-05-15T22:25:13.823Z,4.57
2023-05-15T22:27:42.182Z,5.13
2023-05-15T22:30:12.570Z,5.25
2023-05-15T22:32:41.260Z,5.00
2023-05-15T22:35:10.390Z,4.53
2023-05-15T22:37:40.695Z,4.07
2023-05-15T22:40:11.081Z,5.30
2023-05-15T22:42:39.238Z,4.30
2023-05-15T22:45:08.429Z,4.25
2023-05-15T22:47:38.100Z,4.32
2023-05-15T22:50:07.746Z,4.40
2023-05-15T22:52:35.858Z,4.05
2023-05-15T22:55:03.965Z,4.20
2023-05-15T22:57:32.069Z,4.82
2023-05-15T23:00:00.487Z,4.18
2023-05-15T23:02:28.628Z,4.57
2023-05-15T23:04:58.173Z,4.05
2023-05-15T23:07:26.291Z,4.53
2023-05-15T23:09:54.668Z,4.40
2023-05-15T23:12:22.750Z,4.70
2023-05-15T23:14:50.933Z,5.38
2023-05-15T23:17:18.962Z,4.82
2023-05-15T23:19:47.024Z,4.05
2023-05-15T23:22:16.459Z,6.25
2023-05-15T23:24:44.760Z,4.47
2023-05-15T23:27:15.856Z,3.88
2023-05-15T23:29:43.924Z,4.63
2023-05-15T23:32:11.982Z,5.50
2023-05-15T23:34:40.103Z,5.05
2023-05-15T23:37:08.213Z,4.88
2023-05-15T23:39:37.678Z,4.45
2023-05-15T23:42:06.284Z,4.43
2023-05-15T23:44:34.321Z,4.28
2023-05-15T23:47:02.542Z,4.15
2023-05-15T23:49:32.833Z,3.60
2023-05-15T23:52:00.993Z,5.28
2023-05-15T23:54:29.139Z,4.22
2023-05-15T23:56:58.602Z,3.58
2023-05-15T23:59:26.674Z,4.90
